Terminal Aerodrome Forecast
Issued by NWS Nashville, TN

Home | Current Version | Previous Version | Text Only | Print | Product List | Glossary On
Versions: 1 2 3 4 5 6 7 8 9 10 11 12 13 14 15 16 17 18 19 20 21 22 23 24
000
FTUS44 KOHX 050235 AAC
TAFBNA
TAF AMD
KBNA 050235Z 0503/0524 22003KT P6SM SCT020 OVC040
     FM050400 26004KT 2SM BR OVC007
     FM050800 34004KT 1SM BR OVC003
     FM051400 05006KT 4SM BR OVC007
     FM051600 06006KT P6SM OVC010
     FM052100 08006KT P6SM VCSH OVC015=

USA.gov is the U.S. government's official web portal to all federal, state and local government web resources and services.